This is the latest recevied weather packets stored in our database for station/object EA5JMY-10. If no packets are shown the sender has not sent any weather packets the latest 10 day(s).
| Time | Temp. | Humidity | Pressure | Rain* | Wind** | Luminosity | Snow |
|---|---|---|---|---|---|---|---|
| 1777474233 | 23.33° C | 50% | 1013.1 hPa | - | - | - | - |
| 1777473333 | 23.89° C | 50% | 1013.1 hPa | - | - | - | - |
| 1777472433 | 22.78° C | 48% | 1013.1 hPa | - | - | - | - |
| 1777471533 | 22.78° C | 48% | 1013.3 hPa | - | - | - | - |
| 1777470633 | 23.33° C | 48% | 1013.5 hPa | - | - | - | - |
| 1777469732 | 23.33° C | 48% | 1013.5 hPa | - | - | - | - |
| 1777468832 | 23.33° C | 47% | 1013.6 hPa | - | - | - | - |
| 1777467932 | 25° C | 47% | 1013.6 hPa | - | - | - | - |
| 1777467032 | 23.33° C | 50% | 1013.6 hPa | - | - | - | - |
| 1777466132 | 24.44° C | 48% | 1013.7 hPa | - | - | - | - |
| 1777465232 | 22.78° C | 49% | 1013.7 hPa | - | - | - | - |
| 1777464332 | 23.89° C | 47% | 1013.6 hPa | - | - | - | - |
| 1777463432 | 23.33° C | 51% | 1013.8 hPa | - | - | - | - |
| 1777462532 | 25.56° C | 46% | 1013.9 hPa | - | - | - | - |
| 1777461632 | 25° C | 45% | 1013.8 hPa | - | - | - | - |
| 1777460731 | 25.56° C | 46% | 1014 hPa | - | - | - | - |
| 1777459831 | 23.33° C | 53% | 1014.1 hPa | - | - | - | - |
| 1777458931 | 23.89° C | 51% | 1014 hPa | - | - | - | - |
| 1777458031 | 23.89° C | 52% | 1014.1 hPa | - | - | - | - |
| 1777457131 | 22.78° C | 54% | 1014.1 hPa | - | - | - | - |
| 1777456231 | 23.33° C | 52% | 1014.2 hPa | - | - | - | - |
| 1777455331 | 21.11° C | 60% | 1014.2 hPa | - | - | - | - |
| 1777454431 | 20.56° C | 60% | 1014.2 hPa | - | - | - | - |
| 1777453531 | 21.11° C | 58% | 1014.1 hPa | - | - | - | - |
| 1777452630 | 20.56° C | 59% | 1013.9 hPa | - | - | - | - |
* Rain since midnight (hover to see other rain measurements)
** Current wind speed in m/s (hover to see current wind gust speed)